sensor_id;sensor_type;location;lat;lon;timestamp;P1;durP1;ratioP1;P2;durP2;ratioP2
357;SDS011;167;47.558;7.602;2024-01-10T00:02:17;12.00;;;9.80;;
357;SDS011;167;47.558;7.602;2024-01-10T00:04:43;11.03;;;9.33;;
357;SDS011;167;47.558;7.602;2024-01-10T00:07:09;9.93;;;8.30;;
357;SDS011;167;47.558;7.602;2024-01-10T00:09:35;11.40;;;10.17;;
357;SDS011;167;47.558;7.602;2024-01-10T00:12:01;11.03;;;9.23;;
357;SDS011;167;47.558;7.602;2024-01-10T00:14:27;11.10;;;9.30;;
357;SDS011;167;47.558;7.602;2024-01-10T00:16:53;11.73;;;9.80;;
357;SDS011;167;47.558;7.602;2024-01-10T00:19:19;11.23;;;10.07;;
357;SDS011;167;47.558;7.602;2024-01-10T00:21:45;12.93;;;10.63;;
357;SDS011;167;47.558;7.602;2024-01-10T00:24:11;10.43;;;9.40;;
357;SDS011;167;47.558;7.602;2024-01-10T00:26:36;10.33;;;9.23;;
357;SDS011;167;47.558;7.602;2024-01-10T00:29:02;14.80;;;12.50;;
357;SDS011;167;47.558;7.602;2024-01-10T00:31:28;13.70;;;10.50;;
357;SDS011;167;47.558;7.602;2024-01-10T00:33:54;14.80;;;9.70;;
357;SDS011;167;47.558;7.602;2024-01-10T00:36:20;12.60;;;10.20;;
357;SDS011;167;47.558;7.602;2024-01-10T00:38:46;13.37;;;11.37;;
357;SDS011;167;47.558;7.602;2024-01-10T00:41:12;12.77;;;11.40;;
357;SDS011;167;47.558;7.602;2024-01-10T00:43:38;16.43;;;9.80;;
357;SDS011;167;47.558;7.602;2024-01-10T00:46:04;13.37;;;10.23;;
357;SDS011;167;47.558;7.602;2024-01-10T00:48:30;12.30;;;9.67;;
357;SDS011;167;47.558;7.602;2024-01-10T00:50:56;11.80;;;9.50;;
357;SDS011;167;47.558;7.602;2024-01-10T00:53:22;10.50;;;8.90;;
357;SDS011;167;47.558;7.602;2024-01-10T00:55:48;11.63;;;10.33;;
357;SDS011;167;47.558;7.602;2024-01-10T00:58:14;10.17;;;9.07;;
357;SDS011;167;47.558;7.602;2024-01-10T01:00:41;11.97;;;10.07;;
357;SDS011;167;47.558;7.602;2024-01-10T01:03:07;13.10;;;10.33;;
357;SDS011;167;47.558;7.602;2024-01-10T01:05:33;11.70;;;9.60;;
357;SDS011;167;47.558;7.602;2024-01-10T01:07:59;10.77;;;9.77;;
357;SDS011;167;47.558;7.602;2024-01-10T01:10:24;14.40;;;9.97;;
357;SDS011;167;47.558;7.602;2024-01-10T01:12:50;10.33;;;9.23;;
357;SDS011;167;47.558;7.602;2024-01-10T01:15:16;10.37;;;9.30;;
357;SDS011;167;47.558;7.602;2024-01-10T01:17:42;11.50;;;9.80;;
357;SDS011;167;47.558;7.602;2024-01-10T01:20:08;10.47;;;9.20;;
357;SDS011;167;47.558;7.602;2024-01-10T01:22:35;11.90;;;10.90;;
357;SDS011;167;47.558;7.602;2024-01-10T01:25:01;11.70;;;10.60;;
357;SDS011;167;47.558;7.602;2024-01-10T01:27:27;11.17;;;9.80;;
357;SDS011;167;47.558;7.602;2024-01-10T01:29:53;11.90;;;10.17;;
357;SDS011;167;47.558;7.602;2024-01-10T01:32:19;10.43;;;9.40;;
357;SDS011;167;47.558;7.602;2024-01-10T01:34:45;12.97;;;10.30;;
357;SDS011;167;47.558;7.602;2024-01-10T01:37:11;14.43;;;10.53;;
357;SDS011;167;47.558;7.602;2024-01-10T01:39:37;11.17;;;9.17;;
357;SDS011;167;47.558;7.602;2024-01-10T01:42:03;12.60;;;10.97;;
357;SDS011;167;47.558;7.602;2024-01-10T01:44:29;11.77;;;9.90;;
357;SDS011;167;47.558;7.602;2024-01-10T01:46:57;13.77;;;10.53;;
357;SDS011;167;47.558;7.602;2024-01-10T01:49:23;10.30;;;9.17;;
357;SDS011;167;47.558;7.602;2024-01-10T01:51:50;11.70;;;10.07;;
357;SDS011;167;47.558;7.602;2024-01-10T01:54:16;15.07;;;9.80;;
357;SDS011;167;47.558;7.602;2024-01-10T01:56:42;10.47;;;9.37;;
357;SDS011;167;47.558;7.602;2024-01-10T01:59:09;13.53;;;10.50;;
357;SDS011;167;47.558;7.602;2024-01-10T02:01:36;10.77;;;8.87;;
357;SDS011;167;47.558;7.602;2024-01-10T02:04:02;11.27;;;9.93;;
357;SDS011;167;47.558;7.602;2024-01-10T02:06:28;10.20;;;9.20;;
357;SDS011;167;47.558;7.602;2024-01-10T02:08:55;13.20;;;10.70;;
357;SDS011;167;47.558;7.602;2024-01-10T02:11:21;14.90;;;11.03;;
357;SDS011;167;47.558;7.602;2024-01-10T02:13:48;11.70;;;10.50;;
357;SDS011;167;47.558;7.602;2024-01-10T02:16:14;15.20;;;12.13;;
357;SDS011;167;47.558;7.602;2024-01-10T02:18:40;16.60;;;11.77;;
357;SDS011;167;47.558;7.602;2024-01-10T02:21:06;12.37;;;11.23;;
357;SDS011;167;47.558;7.602;2024-01-10T02:23:32;12.83;;;11.47;;
357;SDS011;167;47.558;7.602;2024-01-10T02:25:58;18.87;;;12.20;;
357;SDS011;167;47.558;7.602;2024-01-10T02:28:24;14.93;;;11.40;;
357;SDS011;167;47.558;7.602;2024-01-10T02:30:51;13.67;;;11.77;;
357;SDS011;167;47.558;7.602;2024-01-10T02:33:17;14.27;;;11.20;;
357;SDS011;167;47.558;7.602;2024-01-10T02:35:43;17.10;;;12.57;;
357;SDS011;167;47.558;7.602;2024-01-10T02:38:09;14.80;;;12.47;;
357;SDS011;167;47.558;7.602;2024-01-10T02:40:35;13.77;;;12.30;;
357;SDS011;167;47.558;7.602;2024-01-10T02:43:01;14.43;;;12.00;;
357;SDS011;167;47.558;7.602;2024-01-10T02:45:27;12.93;;;11.53;;
357;SDS011;167;47.558;7.602;2024-01-10T02:47:53;13.80;;;12.20;;
357;SDS011;167;47.558;7.602;2024-01-10T02:50:19;15.60;;;12.20;;
357;SDS011;167;47.558;7.602;2024-01-10T02:52:45;13.57;;;12.07;;
357;SDS011;167;47.558;7.602;2024-01-10T02:55:11;16.10;;;12.63;;
357;SDS011;167;47.558;7.602;2024-01-10T02:57:37;12.67;;;11.37;;
357;SDS011;167;47.558;7.602;2024-01-10T03:00:03;12.23;;;10.37;;
357;SDS011;167;47.558;7.602;2024-01-10T03:02:30;13.00;;;11.53;;
357;SDS011;167;47.558;7.602;2024-01-10T03:04:56;14.00;;;12.27;;
357;SDS011;167;47.558;7.602;2024-01-10T03:07:22;13.03;;;11.80;;
357;SDS011;167;47.558;7.602;2024-01-10T03:09:49;13.83;;;12.40;;
357;SDS011;167;47.558;7.602;2024-01-10T03:12:15;15.60;;;13.13;;
357;SDS011;167;47.558;7.602;2024-01-10T03:14:41;15.43;;;12.20;;
357;SDS011;167;47.558;7.602;2024-01-10T03:17:07;17.77;;;13.00;;
357;SDS011;167;47.558;7.602;2024-01-10T03:19:33;14.67;;;12.30;;
357;SDS011;167;47.558;7.602;2024-01-10T03:22:02;13.60;;;12.10;;
357;SDS011;167;47.558;7.602;2024-01-10T03:24:28;15.83;;;11.83;;
357;SDS011;167;47.558;7.602;2024-01-10T03:26:54;15.03;;;12.47;;
357;SDS011;167;47.558;7.602;2024-01-10T03:29:20;16.47;;;13.60;;
357;SDS011;167;47.558;7.602;2024-01-10T03:31:46;15.20;;;12.53;;
357;SDS011;167;47.558;7.602;2024-01-10T03:34:12;16.77;;;13.53;;
357;SDS011;167;47.558;7.602;2024-01-10T03:36:38;16.07;;;11.93;;
357;SDS011;167;47.558;7.602;2024-01-10T03:39:04;13.30;;;11.70;;
357;SDS011;167;47.558;7.602;2024-01-10T03:41:30;14.30;;;11.97;;
357;SDS011;167;47.558;7.602;2024-01-10T03:43:55;13.40;;;11.10;;
357;SDS011;167;47.558;7.602;2024-01-10T03:46:21;15.73;;;12.83;;
357;SDS011;167;47.558;7.602;2024-01-10T03:48:47;15.27;;;13.70;;
357;SDS011;167;47.558;7.602;2024-01-10T03:51:17;13.17;;;11.87;;
357;SDS011;167;47.558;7.602;2024-01-10T03:53:44;19.10;;;13.30;;
357;SDS011;167;47.558;7.602;2024-01-10T03:56:11;14.33;;;12.00;;
357;SDS011;167;47.558;7.602;2024-01-10T03:58:37;14.47;;;12.30;;
357;SDS011;167;47.558;7.602;2024-01-10T04:01:06;15.67;;;11.80;;
357;SDS011;167;47.558;7.602;2024-01-10T04:03:32;14.40;;;12.33;;
357;SDS011;167;47.558;7.602;2024-01-10T04:05:59;18.80;;;14.47;;
357;SDS011;167;47.558;7.602;2024-01-10T04:08:25;15.07;;;12.80;;
357;SDS011;167;47.558;7.602;2024-01-10T04:10:51;18.33;;;13.00;;
357;SDS011;167;47.558;7.602;2024-01-10T04:13:17;15.40;;;13.40;;
357;SDS011;167;47.558;7.602;2024-01-10T04:15:43;18.30;;;14.03;;
357;SDS011;167;47.558;7.602;2024-01-10T04:18:09;16.00;;;13.50;;
357;SDS011;167;47.558;7.602;2024-01-10T04:20:35;17.00;;;13.73;;
357;SDS011;167;47.558;7.602;2024-01-10T04:23:01;14.30;;;12.67;;
357;SDS011;167;47.558;7.602;2024-01-10T04:25:27;16.43;;;13.23;;
357;SDS011;167;47.558;7.602;2024-01-10T04:27:53;16.00;;;14.00;;
357;SDS011;167;47.558;7.602;2024-01-10T04:30:20;18.37;;;13.67;;
357;SDS011;167;47.558;7.602;2024-01-10T04:32:46;17.37;;;13.10;;
357;SDS011;167;47.558;7.602;2024-01-10T04:35:12;14.57;;;12.10;;
357;SDS011;167;47.558;7.602;2024-01-10T04:37:38;16.57;;;14.00;;
357;SDS011;167;47.558;7.602;2024-01-10T04:40:04;16.33;;;13.07;;
357;SDS011;167;47.558;7.602;2024-01-10T04:42:31;20.67;;;13.37;;
357;SDS011;167;47.558;7.602;2024-01-10T04:44:57;17.20;;;14.23;;
357;SDS011;167;47.558;7.602;2024-01-10T04:47:23;17.27;;;13.27;;
357;SDS011;167;47.558;7.602;2024-01-10T04:49:49;17.07;;;12.83;;
357;SDS011;167;47.558;7.602;2024-01-10T04:52:15;14.00;;;12.50;;
357;SDS011;167;47.558;7.602;2024-01-10T04:54:41;17.50;;;14.63;;
357;SDS011;167;47.558;7.602;2024-01-10T04:57:07;18.60;;;13.40;;
357;SDS011;167;47.558;7.602;2024-01-10T04:59:33;16.17;;;13.63;;
357;SDS011;167;47.558;7.602;2024-01-10T05:01:59;17.97;;;13.00;;
357;SDS011;167;47.558;7.602;2024-01-10T05:04:25;15.63;;;11.83;;
357;SDS011;167;47.558;7.602;2024-01-10T05:06:51;18.67;;;13.03;;
357;SDS011;167;47.558;7.602;2024-01-10T05:09:17;19.77;;;14.63;;
357;SDS011;167;47.558;7.602;2024-01-10T05:11:43;18.63;;;14.73;;
357;SDS011;167;47.558;7.602;2024-01-10T05:14:12;16.60;;;12.87;;
357;SDS011;167;47.558;7.602;2024-01-10T05:16:38;14.17;;;12.13;;
357;SDS011;167;47.558;7.602;2024-01-10T05:19:04;18.03;;;13.60;;
357;SDS011;167;47.558;7.602;2024-01-10T05:21:30;17.50;;;13.90;;
357;SDS011;167;47.558;7.602;2024-01-10T05:23:57;17.67;;;14.23;;
357;SDS011;167;47.558;7.602;2024-01-10T05:26:23;14.90;;;12.57;;
357;SDS011;167;47.558;7.602;2024-01-10T05:28:49;14.90;;;13.30;;
357;SDS011;167;47.558;7.602;2024-01-10T05:31:14;19.80;;;14.27;;
357;SDS011;167;47.558;7.602;2024-01-10T05:33:40;17.67;;;13.80;;
357;SDS011;167;47.558;7.602;2024-01-10T05:36:07;16.37;;;13.70;;
357;SDS011;167;47.558;7.602;2024-01-10T05:38:36;14.93;;;13.03;;
357;SDS011;167;47.558;7.602;2024-01-10T05:41:02;16.60;;;12.23;;
357;SDS011;167;47.558;7.602;2024-01-10T05:43:28;14.33;;;12.70;;
357;SDS011;167;47.558;7.602;2024-01-10T05:45:54;16.47;;;14.17;;
357;SDS011;167;47.558;7.602;2024-01-10T05:48:20;14.73;;;13.10;;
357;SDS011;167;47.558;7.602;2024-01-10T05:50:46;18.47;;;13.97;;
357;SDS011;167;47.558;7.602;2024-01-10T05:53:12;16.57;;;13.20;;
357;SDS011;167;47.558;7.602;2024-01-10T05:55:41;15.97;;;13.90;;
357;SDS011;167;47.558;7.602;2024-01-10T05:58:07;14.43;;;12.83;;
357;SDS011;167;47.558;7.602;2024-01-10T06:00:34;16.10;;;14.00;;
357;SDS011;167;47.558;7.602;2024-01-10T06:03:00;15.40;;;12.20;;
357;SDS011;167;47.558;7.602;2024-01-10T06:05:26;14.37;;;12.27;;
357;SDS011;167;47.558;7.602;2024-01-10T06:07:52;16.63;;;14.83;;
357;SDS011;167;47.558;7.602;2024-01-10T06:10:18;18.50;;;13.30;;
357;SDS011;167;47.558;7.602;2024-01-10T06:12:44;19.13;;;13.20;;
357;SDS011;167;47.558;7.602;2024-01-10T06:15:10;15.40;;;11.47;;
357;SDS011;167;47.558;7.602;2024-01-10T06:17:36;17.70;;;12.73;;
357;SDS011;167;47.558;7.602;2024-01-10T06:20:03;17.97;;;12.33;;
357;SDS011;167;47.558;7.602;2024-01-10T06:22:29;13.93;;;12.60;;
357;SDS011;167;47.558;7.602;2024-01-10T06:24:55;19.13;;;14.67;;
357;SDS011;167;47.558;7.602;2024-01-10T06:27:21;18.60;;;14.57;;
357;SDS011;167;47.558;7.602;2024-01-10T06:29:47;15.33;;;12.00;;
357;SDS011;167;47.558;7.602;2024-01-10T06:32:13;16.03;;;11.67;;
357;SDS011;167;47.558;7.602;2024-01-10T06:34:39;17.10;;;12.97;;
357;SDS011;167;47.558;7.602;2024-01-10T06:37:05;17.00;;;13.20;;
357;SDS011;167;47.558;7.602;2024-01-10T06:39:32;20.50;;;12.93;;
357;SDS011;167;47.558;7.602;2024-01-10T06:41:58;22.37;;;13.63;;
357;SDS011;167;47.558;7.602;2024-01-10T06:44:24;19.20;;;12.53;;
357;SDS011;167;47.558;7.602;2024-01-10T06:46:52;15.60;;;12.70;;
357;SDS011;167;47.558;7.602;2024-01-10T06:49:18;15.70;;;12.13;;
357;SDS011;167;47.558;7.602;2024-01-10T06:51:44;16.27;;;12.40;;
357;SDS011;167;47.558;7.602;2024-01-10T06:54:10;14.57;;;11.23;;
357;SDS011;167;47.558;7.602;2024-01-10T06:56:36;13.70;;;11.50;;
357;SDS011;167;47.558;7.602;2024-01-10T06:59:02;21.90;;;14.30;;
357;SDS011;167;47.558;7.602;2024-01-10T07:01:28;16.67;;;12.50;;
357;SDS011;167;47.558;7.602;2024-01-10T07:03:54;15.67;;;11.70;;
357;SDS011;167;47.558;7.602;2024-01-10T07:06:21;17.23;;;11.10;;
357;SDS011;167;47.558;7.602;2024-01-10T07:08:48;17.60;;;13.70;;
357;SDS011;167;47.558;7.602;2024-01-10T07:11:14;18.37;;;13.90;;
357;SDS011;167;47.558;7.602;2024-01-10T07:13:40;15.60;;;11.97;;
357;SDS011;167;47.558;7.602;2024-01-10T07:16:07;19.10;;;14.80;;
357;SDS011;167;47.558;7.602;2024-01-10T07:18:33;19.50;;;13.47;;
357;SDS011;167;47.558;7.602;2024-01-10T07:20:59;13.10;;;11.70;;
357;SDS011;167;47.558;7.602;2024-01-10T07:23:25;16.23;;;12.67;;
357;SDS011;167;47.558;7.602;2024-01-10T07:25:51;19.03;;;11.73;;
357;SDS011;167;47.558;7.602;2024-01-10T07:28:17;13.10;;;11.37;;
357;SDS011;167;47.558;7.602;2024-01-10T07:30:44;18.10;;;12.50;;
357;SDS011;167;47.558;7.602;2024-01-10T07:33:10;17.17;;;13.67;;
357;SDS011;167;47.558;7.602;2024-01-10T07:35:37;16.13;;;11.90;;
357;SDS011;167;47.558;7.602;2024-01-10T07:38:03;15.70;;;11.57;;
357;SDS011;167;47.558;7.602;2024-01-10T07:40:32;17.97;;;12.93;;
357;SDS011;167;47.558;7.602;2024-01-10T07:42:58;20.13;;;12.97;;
357;SDS011;167;47.558;7.602;2024-01-10T07:45:24;20.73;;;12.70;;
357;SDS011;167;47.558;7.602;2024-01-10T07:47:50;17.60;;;12.53;;
357;SDS011;167;47.558;7.602;2024-01-10T07:50:16;15.27;;;12.47;;
357;SDS011;167;47.558;7.602;2024-01-10T07:52:42;16.93;;;12.83;;
357;SDS011;167;47.558;7.602;2024-01-10T07:55:09;16.73;;;13.00;;
357;SDS011;167;47.558;7.602;2024-01-10T07:57:35;18.20;;;12.53;;
357;SDS011;167;47.558;7.602;2024-01-10T08:00:06;19.30;;;14.43;;
357;SDS011;167;47.558;7.602;2024-01-10T08:02:36;17.57;;;12.03;;
357;SDS011;167;47.558;7.602;2024-01-10T08:05:02;14.90;;;13.03;;
357;SDS011;167;47.558;7.602;2024-01-10T08:07:35;16.53;;;13.83;;
357;SDS011;167;47.558;7.602;2024-01-10T08:10:04;18.20;;;13.47;;
357;SDS011;167;47.558;7.602;2024-01-10T08:12:30;18.47;;;13.80;;
357;SDS011;167;47.558;7.602;2024-01-10T08:14:56;17.03;;;13.90;;
357;SDS011;167;47.558;7.602;2024-01-10T08:17:22;15.90;;;13.67;;
357;SDS011;167;47.558;7.602;2024-01-10T08:19:48;22.70;;;15.23;;
357;SDS011;167;47.558;7.602;2024-01-10T08:22:14;19.80;;;13.77;;
357;SDS011;167;47.558;7.602;2024-01-10T08:24:40;19.90;;;13.50;;
357;SDS011;167;47.558;7.602;2024-01-10T08:27:06;18.57;;;14.77;;
357;SDS011;167;47.558;7.602;2024-01-10T08:29:32;17.83;;;13.77;;
357;SDS011;167;47.558;7.602;2024-01-10T08:31:59;17.00;;;14.50;;
357;SDS011;167;47.558;7.602;2024-01-10T08:34:25;17.73;;;13.27;;
357;SDS011;167;47.558;7.602;2024-01-10T08:36:51;16.40;;;14.17;;
357;SDS011;167;47.558;7.602;2024-01-10T08:39:18;15.37;;;12.70;;
357;SDS011;167;47.558;7.602;2024-01-10T08:41:44;17.40;;;14.73;;
357;SDS011;167;47.558;7.602;2024-01-10T08:44:10;19.40;;;14.43;;
357;SDS011;167;47.558;7.602;2024-01-10T08:46:36;17.10;;;13.30;;
357;SDS011;167;47.558;7.602;2024-01-10T08:49:02;18.97;;;15.07;;
357;SDS011;167;47.558;7.602;2024-01-10T08:51:28;21.00;;;14.70;;
357;SDS011;167;47.558;7.602;2024-01-10T08:53:55;24.73;;;19.80;;
357;SDS011;167;47.558;7.602;2024-01-10T08:56:21;20.93;;;16.20;;
357;SDS011;167;47.558;7.602;2024-01-10T08:58:47;24.93;;;18.00;;
357;SDS011;167;47.558;7.602;2024-01-10T09:01:14;22.20;;;18.97;;
357;SDS011;167;47.558;7.602;2024-01-10T09:03:40;27.37;;;19.20;;
357;SDS011;167;47.558;7.602;2024-01-10T09:06:06;21.47;;;18.17;;
357;SDS011;167;47.558;7.602;2024-01-10T09:08:34;25.43;;;19.40;;
357;SDS011;167;47.558;7.602;2024-01-10T09:11:01;23.53;;;18.20;;
357;SDS011;167;47.558;7.602;2024-01-10T09:13:27;22.93;;;18.40;;
357;SDS011;167;47.558;7.602;2024-01-10T09:15:53;26.07;;;16.90;;
357;SDS011;167;47.558;7.602;2024-01-10T09:18:19;22.10;;;16.20;;
357;SDS011;167;47.558;7.602;2024-01-10T09:20:45;25.00;;;19.97;;
357;SDS011;167;47.558;7.602;2024-01-10T09:23:11;23.47;;;17.80;;
357;SDS011;167;47.558;7.602;2024-01-10T09:25:37;23.57;;;16.87;;
357;SDS011;167;47.558;7.602;2024-01-10T09:28:06;26.87;;;18.77;;
357;SDS011;167;47.558;7.602;2024-01-10T09:30:32;27.80;;;17.80;;
357;SDS011;167;47.558;7.602;2024-01-10T09:32:59;22.23;;;16.00;;
357;SDS011;167;47.558;7.602;2024-01-10T09:35:25;21.10;;;18.70;;
357;SDS011;167;47.558;7.602;2024-01-10T09:37:51;25.00;;;18.53;;
357;SDS011;167;47.558;7.602;2024-01-10T09:40:18;25.47;;;18.57;;
357;SDS011;167;47.558;7.602;2024-01-10T09:42:47;21.20;;;17.37;;
357;SDS011;167;47.558;7.602;2024-01-10T09:45:14;24.70;;;18.97;;
357;SDS011;167;47.558;7.602;2024-01-10T09:47:42;20.33;;;17.40;;
357;SDS011;167;47.558;7.602;2024-01-10T09:50:08;22.37;;;17.87;;
357;SDS011;167;47.558;7.602;2024-01-10T09:52:42;23.80;;;18.33;;
357;SDS011;167;47.558;7.602;2024-01-10T09:55:11;21.17;;;18.87;;
357;SDS011;167;47.558;7.602;2024-01-10T09:57:37;21.80;;;17.03;;
357;SDS011;167;47.558;7.602;2024-01-10T10:00:03;30.10;;;20.50;;
357;SDS011;167;47.558;7.602;2024-01-10T10:02:30;21.30;;;16.60;;
357;SDS011;167;47.558;7.602;2024-01-10T10:07:26;25.23;;;18.60;;
357;SDS011;167;47.558;7.602;2024-01-10T10:09:52;21.43;;;16.60;;
357;SDS011;167;47.558;7.602;2024-01-10T10:12:21;19.77;;;16.00;;
357;SDS011;167;47.558;7.602;2024-01-10T10:14:47;22.20;;;18.63;;
357;SDS011;167;47.558;7.602;2024-01-10T10:17:16;20.47;;;17.47;;
357;SDS011;167;47.558;7.602;2024-01-10T10:19:43;20.23;;;17.80;;
357;SDS011;167;47.558;7.602;2024-01-10T10:22:09;19.17;;;15.77;;
357;SDS011;167;47.558;7.602;2024-01-10T10:24:36;18.80;;;16.57;;
357;SDS011;167;47.558;7.602;2024-01-10T10:27:07;18.87;;;16.87;;
357;SDS011;167;47.558;7.602;2024-01-10T10:29:35;20.83;;;16.27;;
357;SDS011;167;47.558;7.602;2024-01-10T10:32:01;18.03;;;15.40;;
357;SDS011;167;47.558;7.602;2024-01-10T10:34:30;17.60;;;15.60;;
357;SDS011;167;47.558;7.602;2024-01-10T10:36:57;18.57;;;16.60;;
357;SDS011;167;47.558;7.602;2024-01-10T10:39:24;18.43;;;14.83;;
357;SDS011;167;47.558;7.602;2024-01-10T10:41:50;20.53;;;16.20;;
357;SDS011;167;47.558;7.602;2024-01-10T10:44:19;18.90;;;16.60;;
357;SDS011;167;47.558;7.602;2024-01-10T10:46:49;20.13;;;16.50;;
357;SDS011;167;47.558;7.602;2024-01-10T10:49:15;21.77;;;15.97;;
357;SDS011;167;47.558;7.602;2024-01-10T10:51:43;19.27;;;16.60;;
357;SDS011;167;47.558;7.602;2024-01-10T10:54:09;18.67;;;16.77;;
357;SDS011;167;47.558;7.602;2024-01-10T10:56:35;21.30;;;17.23;;
357;SDS011;167;47.558;7.602;2024-01-10T10:59:02;22.87;;;18.30;;
357;SDS011;167;47.558;7.602;2024-01-10T11:01:29;20.60;;;16.90;;
357;SDS011;167;47.558;7.602;2024-01-10T11:03:55;22.87;;;18.43;;
357;SDS011;167;47.558;7.602;2024-01-10T11:06:22;22.33;;;18.27;;
357;SDS011;167;47.558;7.602;2024-01-10T11:08:50;21.27;;;18.97;;
357;SDS011;167;47.558;7.602;2024-01-10T11:21:56;19.57;;;16.87;;
357;SDS011;167;47.558;7.602;2024-01-10T11:24:26;18.53;;;16.30;;
357;SDS011;167;47.558;7.602;2024-01-10T11:27:11;20.60;;;16.80;;
357;SDS011;167;47.558;7.602;2024-01-10T11:29:38;20.30;;;17.30;;
357;SDS011;167;47.558;7.602;2024-01-10T11:32:05;22.47;;;18.77;;
357;SDS011;167;47.558;7.602;2024-01-10T11:34:31;19.70;;;17.60;;
357;SDS011;167;47.558;7.602;2024-01-10T11:37:10;21.97;;;18.60;;
357;SDS011;167;47.558;7.602;2024-01-10T11:39:36;21.30;;;18.70;;
357;SDS011;167;47.558;7.602;2024-01-10T11:42:02;22.53;;;18.07;;
357;SDS011;167;47.558;7.602;2024-01-10T11:44:28;23.53;;;17.87;;
357;SDS011;167;47.558;7.602;2024-01-10T11:46:55;23.43;;;18.30;;
357;SDS011;167;47.558;7.602;2024-01-10T11:49:22;24.10;;;18.93;;
357;SDS011;167;47.558;7.602;2024-01-10T11:51:49;24.33;;;20.33;;
357;SDS011;167;47.558;7.602;2024-01-10T11:57:00;21.73;;;17.07;;
357;SDS011;167;47.558;7.602;2024-01-10T11:59:26;22.07;;;17.77;;
357;SDS011;167;47.558;7.602;2024-01-10T12:01:52;22.43;;;19.33;;
357;SDS011;167;47.558;7.602;2024-01-10T12:04:19;23.70;;;20.57;;
357;SDS011;167;47.558;7.602;2024-01-10T12:06:46;24.03;;;20.00;;
357;SDS011;167;47.558;7.602;2024-01-10T12:09:12;22.10;;;18.63;;
357;SDS011;167;47.558;7.602;2024-01-10T12:11:39;27.70;;;20.50;;
357;SDS011;167;47.558;7.602;2024-01-10T12:14:06;27.00;;;21.50;;
357;SDS011;167;47.558;7.602;2024-01-10T12:16:33;26.23;;;20.13;;
357;SDS011;167;47.558;7.602;2024-01-10T12:18:59;20.23;;;17.80;;
357;SDS011;167;47.558;7.602;2024-01-10T12:21:25;22.70;;;18.40;;
357;SDS011;167;47.558;7.602;2024-01-10T12:23:51;23.00;;;20.27;;
357;SDS011;167;47.558;7.602;2024-01-10T12:26:17;24.43;;;19.53;;
357;SDS011;167;47.558;7.602;2024-01-10T12:28:53;23.90;;;18.80;;
357;SDS011;167;47.558;7.602;2024-01-10T12:31:19;25.70;;;18.33;;
357;SDS011;167;47.558;7.602;2024-01-10T12:33:48;22.80;;;19.50;;
357;SDS011;167;47.558;7.602;2024-01-10T12:36:14;24.47;;;19.30;;
357;SDS011;167;47.558;7.602;2024-01-10T12:38:42;21.00;;;16.67;;
357;SDS011;167;47.558;7.602;2024-01-10T12:41:12;23.13;;;19.53;;
357;SDS011;167;47.558;7.602;2024-01-10T12:43:39;26.53;;;19.60;;
357;SDS011;167;47.558;7.602;2024-01-10T12:46:12;26.00;;;20.40;;
357;SDS011;167;47.558;7.602;2024-01-10T12:48:41;21.60;;;19.00;;
357;SDS011;167;47.558;7.602;2024-01-10T12:51:08;27.93;;;20.63;;
357;SDS011;167;47.558;7.602;2024-01-10T12:53:34;24.40;;;17.80;;
357;SDS011;167;47.558;7.602;2024-01-10T12:56:01;25.10;;;20.27;;
357;SDS011;167;47.558;7.602;2024-01-10T12:58:28;25.50;;;19.60;;
357;SDS011;167;47.558;7.602;2024-01-10T13:00:54;22.60;;;17.93;;
357;SDS011;167;47.558;7.602;2024-01-10T13:03:20;21.20;;;18.17;;
357;SDS011;167;47.558;7.602;2024-01-10T13:05:46;22.90;;;18.23;;
357;SDS011;167;47.558;7.602;2024-01-10T13:08:12;21.50;;;18.10;;
357;SDS011;167;47.558;7.602;2024-01-10T13:10:39;24.33;;;19.40;;
357;SDS011;167;47.558;7.602;2024-01-10T13:13:05;23.60;;;18.03;;
357;SDS011;167;47.558;7.602;2024-01-10T13:15:32;22.77;;;19.13;;
357;SDS011;167;47.558;7.602;2024-01-10T13:17:58;22.47;;;20.13;;
357;SDS011;167;47.558;7.602;2024-01-10T13:20:24;21.43;;;17.37;;
357;SDS011;167;47.558;7.602;2024-01-10T13:22:50;19.53;;;17.17;;
357;SDS011;167;47.558;7.602;2024-01-10T13:25:16;21.73;;;16.80;;
357;SDS011;167;47.558;7.602;2024-01-10T13:27:42;21.17;;;18.70;;
357;SDS011;167;47.558;7.602;2024-01-10T13:30:09;21.77;;;19.47;;
357;SDS011;167;47.558;7.602;2024-01-10T13:32:36;19.97;;;17.87;;
357;SDS011;167;47.558;7.602;2024-01-10T13:35:03;20.60;;;17.97;;
357;SDS011;167;47.558;7.602;2024-01-10T13:37:29;19.37;;;17.13;;
357;SDS011;167;47.558;7.602;2024-01-10T13:39:57;21.70;;;18.97;;
357;SDS011;167;47.558;7.602;2024-01-10T13:42:24;20.63;;;17.80;;
357;SDS011;167;47.558;7.602;2024-01-10T13:44:50;28.40;;;19.00;;
357;SDS011;167;47.558;7.602;2024-01-10T13:47:19;20.60;;;18.37;;
357;SDS011;167;47.558;7.602;2024-01-10T13:49:48;19.53;;;16.67;;
357;SDS011;167;47.558;7.602;2024-01-10T13:52:14;21.70;;;17.57;;
357;SDS011;167;47.558;7.602;2024-01-10T13:54:40;21.67;;;17.53;;
357;SDS011;167;47.558;7.602;2024-01-10T13:57:07;19.93;;;16.53;;
357;SDS011;167;47.558;7.602;2024-01-10T13:59:33;22.77;;;19.13;;
357;SDS011;167;47.558;7.602;2024-01-10T14:01:59;19.53;;;17.47;;
357;SDS011;167;47.558;7.602;2024-01-10T14:04:25;20.80;;;18.60;;
357;SDS011;167;47.558;7.602;2024-01-10T14:06:51;20.03;;;17.13;;
357;SDS011;167;47.558;7.602;2024-01-10T14:09:17;19.97;;;17.70;;
357;SDS011;167;47.558;7.602;2024-01-10T14:11:43;21.13;;;16.23;;
357;SDS011;167;47.558;7.602;2024-01-10T14:14:10;21.60;;;17.47;;
357;SDS011;167;47.558;7.602;2024-01-10T14:16:36;22.23;;;18.47;;
357;SDS011;167;47.558;7.602;2024-01-10T14:19:02;22.87;;;18.43;;
357;SDS011;167;47.558;7.602;2024-01-10T14:21:28;22.83;;;17.73;;
357;SDS011;167;47.558;7.602;2024-01-10T14:23:56;20.93;;;17.70;;
357;SDS011;167;47.558;7.602;2024-01-10T14:26:22;20.23;;;18.03;;
357;SDS011;167;47.558;7.602;2024-01-10T14:28:49;22.33;;;18.90;;
357;SDS011;167;47.558;7.602;2024-01-10T14:31:17;20.80;;;17.57;;
357;SDS011;167;47.558;7.602;2024-01-10T14:33:44;19.90;;;17.17;;
357;SDS011;167;47.558;7.602;2024-01-10T14:36:10;22.73;;;18.60;;
357;SDS011;167;47.558;7.602;2024-01-10T14:38:36;22.00;;;18.57;;
357;SDS011;167;47.558;7.602;2024-01-10T14:41:03;21.67;;;18.70;;
357;SDS011;167;47.558;7.602;2024-01-10T14:43:29;20.80;;;18.23;;
357;SDS011;167;47.558;7.602;2024-01-10T14:45:55;23.13;;;18.33;;
357;SDS011;167;47.558;7.602;2024-01-10T14:48:21;19.40;;;17.50;;
357;SDS011;167;47.558;7.602;2024-01-10T14:50:47;21.00;;;18.23;;
357;SDS011;167;47.558;7.602;2024-01-10T14:53:13;20.73;;;17.30;;
357;SDS011;167;47.558;7.602;2024-01-10T14:55:39;20.70;;;17.93;;
357;SDS011;167;47.558;7.602;2024-01-10T14:58:05;20.47;;;17.67;;
357;SDS011;167;47.558;7.602;2024-01-10T15:00:32;21.17;;;17.00;;
357;SDS011;167;47.558;7.602;2024-01-10T15:02:58;18.97;;;16.27;;
357;SDS011;167;47.558;7.602;2024-01-10T15:05:24;19.70;;;17.20;;
357;SDS011;167;47.558;7.602;2024-01-10T15:07:51;19.77;;;17.00;;
357;SDS011;167;47.558;7.602;2024-01-10T15:10:17;19.17;;;17.17;;
357;SDS011;167;47.558;7.602;2024-01-10T15:12:43;20.80;;;18.00;;
357;SDS011;167;47.558;7.602;2024-01-10T15:15:10;26.73;;;18.77;;
357;SDS011;167;47.558;7.602;2024-01-10T15:17:36;21.37;;;17.17;;
357;SDS011;167;47.558;7.602;2024-01-10T15:20:02;21.70;;;17.67;;
357;SDS011;167;47.558;7.602;2024-01-10T15:22:29;19.30;;;17.20;;
357;SDS011;167;47.558;7.602;2024-01-10T15:24:55;24.30;;;18.00;;
357;SDS011;167;47.558;7.602;2024-01-10T15:27:20;26.33;;;19.57;;
357;SDS011;167;47.558;7.602;2024-01-10T15:29:46;20.87;;;17.27;;